Hovedside
METAR-TAF:

METAR-TAF

Lufthavner :

Istanbul Atatürk, Tyrkia

breddegrad: 40-58N, lengdegrad: 028-49E, høyde over havet: 48 m

Gjeldene værobservasjon

Denne rapporten ble laget for 17 minutter siden, klokken 15:50 UTC
Vind 7 kt fra Nord-nordøst
Temperatur 16°C
Luftfuktighet 77%
Trykk 1020 hPa
Sikt 10 km eller mer
ingen skyer under 1500 m og ingen bygeskyer

METAR: LTBA 201550Z 02007KT CAVOK 16/12 Q1020 NOSIG RMK RWY17L 02006KT 350V060 RWY05 01005KT RWY23 02007KT

Tid: 19:07 (16:07 UTC)

Varsel

Denne rapporten ble laget for 5 timer og 27 minutter siden, klokken 10:40 UTC
Varsel gyldig fra 20. klokken 12 UTC til 21. klokken 18 UTC
Vind 2 kt fra skiftende retning
Sikt 10 km eller mer
ingen skyer under 1500 m og ingen bygeskyer
Sannsynlighet 30% :
Midlertidig
fra 21. klokken 00 UTC til 21. klokken 04 UTC
Sikt: 3200 m
dis

TAF: LTBA 201040Z 2012/2118 VRB02KT CAVOK PROB30 TEMPO 2100/2104 3200 BR

Værobservasjoner og værvarsel for over 4000 flyplasser (METAR- og TAF-rapporter).

Tilgjengelige stasjoner er representert av de røde og gule prikkene på kartet.

Hold musepekeren over prikken for å se navnet på stasjonen.

Klikk så for å se værobservasjoner og -varsler.

For å forandre kartet kan du klikke på den grønne knappen med svart kryss for å zoome inn, på den grønne knappen med strek for å zoome ut, eller på de grønne pilene for å se tilstøtende kart.


METAR-TAF: